Celtic Spirit — MSGH4 — position and weather

sailwx.info

Track history (hours):
 
Tides and Currents Weather Stations Pressure Air Temp Water Temp Dewpoint Dewpoint Depression Visibility Wind Speed Wind Dir Waves Ship Positions

Celtic Spirit

Last reported at 2017-Jun-04 23:39 UTC. Time now 2017-Jun-26 22:29 UTC.
Position N 38°59' W 027°10'.
Warning: this ship's position is 21 days out of date.

Length 20 m.

Type: Pleasure craft. MMSI: 235010910.

Date/timePositionNaut miles runAvg speedWind from/ knotsBaromVisibWave heightAir tempDewpointWater temp
2017-Jun-04 23:39N 38°59' W 027°10'1 7.4
2017-Jun-04 23:30N 38°59' W 027°12'4 7.4
2017-Jun-04 23:00N 38°58' W 027°16'4 7.2
2017-Jun-04 22:30N 38°57' W 027°21'4 7.1
2017-Jun-04 21:59N 38°57' W 027°26'4 7.5
2017-Jun-04 21:28N 38°56' W 027°30'3 7.4
2017-Jun-04 21:00N 38°55' W 027°35'4 7.5
2017-Jun-04 20:29N 38°54' W 027°40'3 7.4
2017-Jun-04 20:00N 38°53' W 027°44'4 7.2
2017-Jun-04 19:30N 38°52' W 027°48'4 7.4
2017-Jun-04 19:00N 38°51' W 027°53'4 7.2
2017-Jun-04 18:30N 38°51' W 027°58'2 5.0
2017-Jun-04 18:00N 38°50' W 028°01'4 7.3
2017-Jun-04 17:30N 38°49' W 028°05'4 7.4
2017-Jun-04 17:00N 38°48' W 028°10'4 7.5
2017-Jun-04 16:30N 38°47' W 028°15'4 7.3
2017-Jun-04 16:00N 38°46' W 028°19'4 7.2
2017-Jun-04 15:30N 38°45' W 028°23'4 7.3
2017-Jun-04 14:59N 38°43' W 028°27'3 7.0
2017-Jun-04 14:30N 38°40' W 028°30'7 7.4
2017-Jun-04 13:30N 38°34' W 028°34'3 5.3
2017-Jun-04 13:00N 38°32' W 028°37'0 0.9
2017-Jun-04 12:29N 38°32' W 028°38'0 0.0
2017-Jun-04 12:01N 38°32' W 028°38'0 0.0
2017-Jun-02 11:37N 38°32' W 028°38'0 0.0
2017-Jun-02 11:30N 38°32' W 028°38'0 0.1
2017-Jun-02 11:01N 38°32' W 028°37'0 0.0
2017-Jun-02 10:28N 38°32' W 028°37'0 0.0
2017-Jun-02 09:58N 38°32' W 028°37'0 0.0
2017-Jun-02 09:31N 38°32' W 028°37'0 0.0
2017-Jun-02 08:58N 38°32' W 028°37'0 0.6
2017-Jun-02 08:30N 38°32' W 028°37'2 4.8
2017-Jun-02 08:01N 38°30' W 028°38'3 5.1
2017-Jun-02 07:30N 38°28' W 028°39'3 5.1
2017-Jun-02 07:00N 38°25' W 028°40'3 5.2
2017-Jun-02 06:31N 38°23' W 028°42'3 5.1
2017-Jun-02 06:00N 38°21' W 028°44'3 5.1
2017-Jun-02 05:30N 38°19' W 028°46'3 5.0
2017-Jun-02 05:00N 38°16' W 028°47'2 4.9
2017-Jun-02 04:30N 38°14' W 028°48'2 4.7
2017-Jun-02 04:00N 38°12' W 028°50'2 4.5
2017-Jun-02 03:31N 38°10' W 028°51'3 5.0
2017-Jun-02 02:59N 38°08' W 028°52'3 5.2
2017-Jun-02 02:30N 38°06' W 028°54'3 5.1
2017-Jun-02 02:00N 38°03' W 028°55'3 5.1
2017-Jun-02 01:30N 38°01' W 028°57'2 4.7
2017-Jun-02 01:00N 37°59' W 028°58'2 4.7
2017-Jun-02 00:30N 37°57' W 028°60'2 4.6
2017-Jun-02 00:00N 37°55' W 029°01'2 4.4
2017-Jun-01 23:30N 37°53' W 029°03'2 4.1
2017-Jun-01 23:00N 37°51' W 029°04'2 4.0
2017-Jun-01 22:30N 37°50' W 029°06'2 3.9
2017-Jun-01 22:00N 37°48' W 029°07'2 3.7
2017-Jun-01 21:30N 37°46' W 029°08'2 3.9
2017-Jun-01 21:00N 37°45' W 029°10'2 4.0
2017-Jun-01 20:30N 37°44' W 029°12'2 4.3
2017-Jun-01 20:00N 37°42' W 029°14'2 4.3
2017-Jun-01 19:31N 37°41' W 029°15'2 4.8
2017-Jun-01 19:00N 37°39' W 029°17'3 5.0
2017-Jun-01 18:30N 37°37' W 029°19'3 5.1
2017-Jun-01 18:00N 37°35' W 029°21'3 5.1
2017-Jun-01 17:30N 37°33' W 029°23'2 4.9
2017-Jun-01 17:00N 37°31' W 029°25'2 4.3
2017-Jun-01 16:27N 37°29' W 029°27'  
Track history (hours):
 
Tides and Currents Weather Stations Pressure Air Temp Water Temp Dewpoint Dewpoint Depression Visibility Wind Speed Wind Dir Waves Ship Positions

Celtic Spirit

Last reported at 2017-Jun-04 23:39 UTC. Time now 2017-Jun-26 22:29 UTC.
Position N 38°59' W 027°10'.
Warning: this ship's position is 21 days out of date.

Length 20 m.

Type: Pleasure craft. MMSI: 235010910.

Date/timePositionNaut miles runAvg speedWind from/ knotsBaromVisibWave heightAir tempDewpointWater temp
2017-Jun-04 23:39N 38°59' W 027°10'1 7.4
2017-Jun-04 23:30N 38°59' W 027°12'4 7.4
2017-Jun-04 23:00N 38°58' W 027°16'4 7.2
2017-Jun-04 22:30N 38°57' W 027°21'4 7.1
2017-Jun-04 21:59N 38°57' W 027°26'4 7.5
2017-Jun-04 21:28N 38°56' W 027°30'3 7.4
2017-Jun-04 21:00N 38°55' W 027°35'4 7.5
2017-Jun-04 20:29N 38°54' W 027°40'3 7.4
2017-Jun-04 20:00N 38°53' W 027°44'4 7.2
2017-Jun-04 19:30N 38°52' W 027°48'4 7.4
2017-Jun-04 19:00N 38°51' W 027°53'4 7.2
2017-Jun-04 18:30N 38°51' W 027°58'2 5.0
2017-Jun-04 18:00N 38°50' W 028°01'4 7.3
2017-Jun-04 17:30N 38°49' W 028°05'4 7.4
2017-Jun-04 17:00N 38°48' W 028°10'4 7.5
2017-Jun-04 16:30N 38°47' W 028°15'4 7.3
2017-Jun-04 16:00N 38°46' W 028°19'4 7.2
2017-Jun-04 15:30N 38°45' W 028°23'4 7.3
2017-Jun-04 14:59N 38°43' W 028°27'3 7.0
2017-Jun-04 14:30N 38°40' W 028°30'7 7.4
2017-Jun-04 13:30N 38°34' W 028°34'3 5.3
2017-Jun-04 13:00N 38°32' W 028°37'0 0.9
2017-Jun-04 12:29N 38°32' W 028°38'0 0.0
2017-Jun-04 12:01N 38°32' W 028°38'0 0.0
2017-Jun-02 11:37N 38°32' W 028°38'0 0.0
2017-Jun-02 11:30N 38°32' W 028°38'0 0.1
2017-Jun-02 11:01N 38°32' W 028°37'0 0.0
2017-Jun-02 10:28N 38°32' W 028°37'0 0.0
2017-Jun-02 09:58N 38°32' W 028°37'0 0.0
2017-Jun-02 09:31N 38°32' W 028°37'0 0.0
2017-Jun-02 08:58N 38°32' W 028°37'0 0.6
2017-Jun-02 08:30N 38°32' W 028°37'2 4.8
2017-Jun-02 08:01N 38°30' W 028°38'3 5.1
2017-Jun-02 07:30N 38°28' W 028°39'3 5.1
2017-Jun-02 07:00N 38°25' W 028°40'3 5.2
2017-Jun-02 06:31N 38°23' W 028°42'3 5.1
2017-Jun-02 06:00N 38°21' W 028°44'3 5.1
2017-Jun-02 05:30N 38°19' W 028°46'3 5.0
2017-Jun-02 05:00N 38°16' W 028°47'2 4.9
2017-Jun-02 04:30N 38°14' W 028°48'2 4.7
2017-Jun-02 04:00N 38°12' W 028°50'2 4.5
2017-Jun-02 03:31N 38°10' W 028°51'3 5.0
2017-Jun-02 02:59N 38°08' W 028°52'3 5.2
2017-Jun-02 02:30N 38°06' W 028°54'3 5.1
2017-Jun-02 02:00N 38°03' W 028°55'3 5.1
2017-Jun-02 01:30N 38°01' W 028°57'2 4.7
2017-Jun-02 01:00N 37°59' W 028°58'2 4.7
2017-Jun-02 00:30N 37°57' W 028°60'2 4.6
2017-Jun-02 00:00N 37°55' W 029°01'2 4.4
2017-Jun-01 23:30N 37°53' W 029°03'2 4.1
2017-Jun-01 23:00N 37°51' W 029°04'2 4.0
2017-Jun-01 22:30N 37°50' W 029°06'2 3.9
2017-Jun-01 22:00N 37°48' W 029°07'2 3.7
2017-Jun-01 21:30N 37°46' W 029°08'2 3.9
2017-Jun-01 21:00N 37°45' W 029°10'2 4.0
2017-Jun-01 20:30N 37°44' W 029°12'2 4.3
2017-Jun-01 20:00N 37°42' W 029°14'2 4.3
2017-Jun-01 19:31N 37°41' W 029°15'2 4.8
2017-Jun-01 19:00N 37°39' W 029°17'3 5.0
2017-Jun-01 18:30N 37°37' W 029°19'3 5.1
2017-Jun-01 18:00N 37°35' W 029°21'3 5.1
2017-Jun-01 17:30N 37°33' W 029°23'2 4.9
2017-Jun-01 17:00N 37°31' W 029°25'2 4.3
2017-Jun-01 16:27N 37°29' W 029°27'  

Dump ship's entire track history